createdAt,value
2023-12-21T08:46:31.374Z,94366.00
2023-12-21T08:47:31.270Z,94362.00
2023-12-21T08:48:31.314Z,94350.00
2023-12-21T08:49:31.383Z,94356.00
2023-12-21T08:50:31.369Z,94354.00
2023-12-21T08:51:31.432Z,94345.00
2023-12-21T08:52:31.303Z,94343.00
2023-12-21T08:53:31.309Z,94333.00
2023-12-21T08:54:31.310Z,94334.00
2023-12-21T08:55:31.291Z,94337.00
2023-12-21T08:56:31.311Z,94335.00
2023-12-21T08:57:31.271Z,94335.00
2023-12-21T08:58:31.390Z,94327.00
2023-12-21T08:59:31.282Z,94326.00
2023-12-21T09:00:31.303Z,94314.00
2023-12-21T09:01:31.411Z,94318.00
2023-12-21T09:02:31.313Z,94318.00
2023-12-21T09:03:31.339Z,94312.00
2023-12-21T09:04:31.334Z,94315.00
2023-12-21T09:05:31.339Z,94316.00
2023-12-21T09:06:31.317Z,94319.00
2023-12-21T09:07:31.489Z,94322.00
2023-12-21T09:08:31.467Z,94318.00
2023-12-21T09:09:31.411Z,94308.00
2023-12-21T09:10:31.503Z,94307.00
2023-12-21T09:11:31.582Z,94303.00
2023-12-21T09:12:31.617Z,94306.00
2023-12-21T09:13:31.657Z,94302.00
2023-12-21T09:14:31.703Z,94306.00
2023-12-21T09:15:31.734Z,94310.00
2023-12-21T09:16:31.854Z,94297.00
2023-12-21T09:17:31.882Z,94294.00
2023-12-21T09:18:31.899Z,94291.00
2023-12-21T09:19:31.971Z,94294.00
2023-12-21T09:20:31.944Z,94295.00
2023-12-21T09:21:31.972Z,94293.00
2023-12-21T09:22:32.020Z,94292.00
2023-12-21T09:23:32.036Z,94289.00
2023-12-21T09:24:32.202Z,94283.00
2023-12-21T09:25:32.126Z,94287.00
2023-12-21T09:26:32.212Z,94277.00
2023-12-21T09:27:32.199Z,94285.00
2023-12-21T09:28:32.268Z,94283.00
2023-12-21T09:29:32.255Z,94282.00
2023-12-21T09:30:32.384Z,94282.00
2023-12-21T09:31:32.427Z,94279.00
2023-12-21T09:32:32.516Z,94275.00
2023-12-21T09:33:32.463Z,94284.00
2023-12-21T09:34:32.558Z,94285.00
2023-12-21T09:35:32.461Z,94283.00
2023-12-21T09:36:32.524Z,94279.00
2023-12-21T09:37:32.558Z,94274.00
2023-12-21T09:38:32.582Z,94268.00
2023-12-21T09:39:32.544Z,94266.00
2023-12-21T09:40:32.641Z,94268.00
2023-12-21T09:41:32.959Z,94265.00
2023-12-21T09:42:32.642Z,94265.00
2023-12-21T09:43:32.790Z,94268.00
2023-12-21T09:44:32.737Z,94265.00
2023-12-21T09:45:32.806Z,94265.00
2023-12-21T09:46:33.216Z,94257.00
2023-12-21T09:47:32.929Z,94252.00
2023-12-21T09:48:33.011Z,94251.00
2023-12-21T09:49:33.030Z,94250.00
2023-12-21T09:50:33.069Z,94251.00
2023-12-21T09:51:33.207Z,94267.00
2023-12-21T09:52:33.306Z,94263.00
2023-12-21T09:53:33.387Z,94252.00
2023-12-21T09:54:33.320Z,94247.00
2023-12-21T09:55:33.457Z,94243.00
2023-12-21T09:56:33.338Z,94243.00
2023-12-21T09:57:33.443Z,94242.00
2023-12-21T09:58:33.433Z,94238.00
2023-12-21T09:59:33.459Z,94232.00
2023-12-21T10:00:33.622Z,94223.00
2023-12-21T10:01:33.657Z,94223.00
2023-12-21T10:02:33.949Z,94218.00
2023-12-21T10:03:33.768Z,94215.00
2023-12-21T10:04:33.821Z,94209.00
2023-12-21T10:05:33.924Z,94213.00
2023-12-21T10:06:33.920Z,94209.00
2023-12-21T10:07:33.967Z,94200.00
2023-12-21T10:08:33.973Z,94201.00
2023-12-21T10:09:34.043Z,94194.00
2023-12-21T10:10:34.149Z,94195.00
2023-12-21T10:11:34.190Z,94194.00
2023-12-21T10:12:34.202Z,94194.00
2023-12-21T10:13:34.269Z,94185.00
2023-12-21T10:14:34.209Z,94185.00
2023-12-21T10:15:34.392Z,94182.00
2023-12-21T10:16:34.329Z,94178.00
2023-12-21T10:17:34.429Z,94169.00
2023-12-21T10:18:34.422Z,94161.00
2023-12-21T10:19:34.395Z,94164.00
2023-12-21T10:20:34.349Z,94165.00
2023-12-21T10:21:34.327Z,94164.00
2023-12-21T10:22:34.362Z,94159.00
2023-12-21T10:23:34.373Z,94148.00
2023-12-21T10:24:34.425Z,94141.00
2023-12-21T10:25:34.389Z,94143.00
2023-12-21T10:26:34.391Z,94146.00
2023-12-21T10:27:34.413Z,94150.00
2023-12-21T10:28:34.553Z,94148.00
2023-12-21T10:29:34.438Z,94146.00
2023-12-21T10:30:34.441Z,94143.00
2023-12-21T10:31:34.563Z,94139.00
2023-12-21T10:32:34.523Z,94134.00
2023-12-21T10:33:34.583Z,94131.00
2023-12-21T10:34:34.625Z,94129.00
2023-12-21T10:35:34.549Z,94122.00
2023-12-21T10:36:34.530Z,94111.00
2023-12-21T10:37:34.999Z,94107.00
2023-12-21T10:38:34.536Z,94103.00
2023-12-21T10:39:34.553Z,94099.00
2023-12-21T10:40:34.693Z,94095.00
2023-12-21T10:41:34.684Z,94097.00
2023-12-21T10:42:34.670Z,94088.00
2023-12-21T10:43:34.698Z,94087.00
2023-12-21T10:44:34.704Z,94085.00
2023-12-21T10:45:35.693Z,94088.00
2023-12-21T10:46:34.975Z,94085.00
2023-12-21T10:47:35.076Z,94082.00
2023-12-21T10:48:34.884Z,94077.00
2023-12-21T10:49:35.043Z,94077.00
2023-12-21T10:50:34.911Z,94076.00
2023-12-21T10:51:34.796Z,94080.00
2023-12-21T10:52:34.792Z,94081.00
2023-12-21T10:53:34.894Z,94078.00
2023-12-21T10:54:34.873Z,94075.00
2023-12-21T10:55:35.056Z,94078.00
2023-12-21T10:56:35.079Z,94069.00
2023-12-21T10:57:35.092Z,94063.00
2023-12-21T10:58:35.190Z,94056.00
2023-12-21T10:59:35.260Z,94051.00
2023-12-21T11:00:35.480Z,94053.00
2023-12-21T11:01:35.286Z,94055.00
2023-12-21T11:02:35.265Z,94046.00
2023-12-21T11:03:35.336Z,94031.00
2023-12-21T11:04:35.412Z,94030.00
2023-12-21T11:05:35.520Z,94032.00
2023-12-21T11:06:35.469Z,94029.00
2023-12-21T11:07:36.047Z,94031.00
2023-12-21T11:08:35.580Z,94026.00
2023-12-21T11:10:19.407Z,94015.00
2023-12-21T11:11:19.320Z,94008.00
2023-12-21T11:12:19.434Z,93999.00
2023-12-21T11:13:19.366Z,94001.00
2023-12-21T11:14:19.365Z,94010.00
2023-12-21T11:15:19.301Z,94009.00
2023-12-21T11:16:19.331Z,94002.00
2023-12-21T11:17:19.318Z,93999.00
2023-12-21T11:18:19.346Z,93995.00
2023-12-21T11:19:19.423Z,93990.00
2023-12-21T11:20:19.347Z,93982.00
2023-12-21T11:21:19.342Z,93981.00
2023-12-21T11:22:19.408Z,93974.00
2023-12-21T11:23:19.329Z,93979.00
2023-12-21T11:24:19.322Z,93988.00
2023-12-21T11:25:19.362Z,94002.00
2023-12-21T11:26:19.312Z,94007.00
2023-12-21T11:27:19.351Z,94002.00
2023-12-21T11:28:19.404Z,93999.00
2023-12-21T11:29:19.346Z,93995.00
2023-12-21T11:30:19.411Z,93998.00
2023-12-21T11:31:19.456Z,94005.00
2023-12-21T11:32:19.553Z,94014.00
2023-12-21T11:33:19.621Z,94013.00
2023-12-21T11:34:19.675Z,94007.00
2023-12-21T11:35:19.608Z,93993.00
2023-12-21T11:36:19.644Z,93995.00
2023-12-21T11:37:19.966Z,94006.00
2023-12-21T11:38:19.769Z,94007.00
2023-12-21T11:39:19.794Z,94010.00
2023-12-21T11:40:19.814Z,93998.00
2023-12-21T11:41:19.850Z,94004.00
2023-12-21T11:42:19.895Z,93999.00
2023-12-21T11:43:19.962Z,94002.00
2023-12-21T11:44:19.979Z,93995.00
2023-12-21T11:45:20.033Z,93995.00
2023-12-21T11:46:20.230Z,93989.00
2023-12-21T11:47:20.120Z,93979.00
2023-12-21T11:48:20.285Z,93965.00
2023-12-21T11:49:20.254Z,93960.00
2023-12-21T11:50:20.288Z,93964.00
2023-12-21T11:51:20.248Z,93960.00
2023-12-21T11:52:20.349Z,93958.00
2023-12-21T11:54:20.454Z,93952.00
2023-12-21T11:55:20.521Z,93940.00
2023-12-21T11:56:20.561Z,93932.00
2023-12-21T11:57:20.591Z,93937.00
2023-12-21T11:58:21.295Z,93938.00
2023-12-21T11:59:20.771Z,93936.00
2023-12-21T12:00:21.454Z,93936.00
2023-12-21T12:01:20.896Z,93932.00
2023-12-21T12:02:20.998Z,93923.00
2023-12-21T12:03:20.975Z,93930.00
2023-12-21T12:04:21.016Z,93931.00
2023-12-21T12:05:21.098Z,93930.00
2023-12-21T12:06:21.118Z,93924.00
2023-12-21T12:07:21.189Z,93919.00
2023-12-21T12:08:21.253Z,93903.00
2023-12-21T12:09:21.422Z,93897.00
2023-12-21T12:10:21.523Z,93893.00
2023-12-21T12:11:21.518Z,93892.00
2023-12-21T12:12:21.616Z,93892.00
2023-12-21T12:13:21.745Z,93897.00
2023-12-21T12:14:21.767Z,93898.00
2023-12-21T12:15:21.817Z,93898.00
2023-12-21T12:16:21.914Z,93890.00
2023-12-21T12:17:22.107Z,93885.00
2023-12-21T12:18:22.051Z,93890.00
2023-12-21T12:19:22.203Z,93886.00
2023-12-21T12:20:22.176Z,93884.00
2023-12-21T12:21:22.228Z,93873.00
2023-12-21T12:22:22.324Z,93874.00
2023-12-21T12:23:22.340Z,93862.00
2023-12-21T12:24:22.412Z,93855.00
2023-12-21T12:25:22.525Z,93848.00
2023-12-21T12:26:22.529Z,93846.00
2023-12-21T12:27:22.580Z,93845.00
2023-12-21T12:28:22.751Z,93849.00
2023-12-21T12:29:22.714Z,93850.00
2023-12-21T12:30:22.801Z,93844.00
2023-12-21T12:31:22.826Z,93828.00
2023-12-21T12:32:22.902Z,93822.00
2023-12-21T12:33:23.116Z,93813.00
2023-12-21T12:34:23.111Z,93811.00
2023-12-21T12:35:23.076Z,93809.00
2023-12-21T12:36:23.102Z,93809.00
2023-12-21T12:37:23.181Z,93811.00
2023-12-21T12:38:23.187Z,93810.00
2023-12-21T12:39:23.292Z,93814.00
2023-12-21T12:40:23.345Z,93813.00
2023-12-21T12:41:23.348Z,93806.00
2023-12-21T12:42:23.392Z,93796.00
2023-12-21T12:43:23.500Z,93795.00
2023-12-21T12:44:25.671Z,93796.00
2023-12-21T12:45:23.541Z,93793.00
2023-12-21T12:46:23.606Z,93792.00
2023-12-21T12:47:24.187Z,93789.00
2023-12-21T12:48:23.761Z,93781.00
2023-12-21T12:49:23.941Z,93779.00
2023-12-21T12:50:23.801Z,93778.00
2023-12-21T12:51:23.894Z,93781.00
2023-12-21T12:52:23.886Z,93783.00
2023-12-21T12:53:23.869Z,93784.00
2023-12-21T12:54:23.874Z,93775.00
2023-12-21T12:55:23.891Z,93772.00
2023-12-21T12:56:23.928Z,93765.00
2023-12-21T12:57:23.971Z,93768.00
2023-12-21T12:58:24.022Z,93763.00
2023-12-21T12:59:24.047Z,93766.00
2023-12-21T13:00:24.067Z,93766.00
2023-12-21T13:01:26.262Z,93771.00
2023-12-21T13:02:24.126Z,93769.00
2023-12-21T13:03:24.149Z,93768.00
2023-12-21T13:04:24.166Z,93772.00
2023-12-21T13:05:24.171Z,93771.00
2023-12-21T13:06:24.218Z,93770.00
2023-12-21T13:07:25.665Z,93766.00
2023-12-21T13:08:24.115Z,93758.00
2023-12-21T13:09:24.116Z,93756.00
2023-12-21T13:10:24.216Z,93754.00
2023-12-21T13:11:24.177Z,93757.00
2023-12-21T13:12:24.142Z,93755.00
2023-12-21T13:13:24.191Z,93758.00
2023-12-21T13:14:24.099Z,93759.00
2023-12-21T13:15:24.140Z,93761.00
2023-12-21T13:16:24.175Z,93763.00
2023-12-21T13:17:24.133Z,93758.00
2023-12-21T13:18:24.117Z,93751.00
2023-12-21T13:19:25.881Z,93753.00
2023-12-21T13:20:24.273Z,93754.00
2023-12-21T13:21:24.086Z,93751.00
2023-12-21T13:22:24.216Z,93751.00
2023-12-21T13:23:24.206Z,93756.00
2023-12-21T13:24:24.269Z,93755.00
2023-12-21T13:25:26.106Z,93755.00
2023-12-21T13:26:24.336Z,93748.00
2023-12-21T13:27:24.311Z,93746.00
2023-12-21T13:28:24.372Z,93741.00
2023-12-21T13:29:24.355Z,93742.00
2023-12-21T13:30:24.466Z,93746.00
2023-12-21T13:31:24.363Z,93742.00
2023-12-21T13:32:24.477Z,93740.00
2023-12-21T13:33:24.386Z,93740.00
2023-12-21T13:34:24.432Z,93735.00
2023-12-21T13:35:24.385Z,93733.00
2023-12-21T13:36:24.412Z,93730.00
2023-12-21T13:37:24.424Z,93724.00
2023-12-21T13:38:24.436Z,93722.00
2023-12-21T13:39:24.423Z,93719.00
2023-12-21T13:40:24.491Z,93715.00
2023-12-21T13:41:24.453Z,93711.00
2023-12-21T13:42:24.509Z,93702.00
2023-12-21T13:43:24.490Z,93698.00
2023-12-21T13:44:29.305Z,93699.00
2023-12-21T13:45:25.493Z,93695.00
2023-12-21T13:46:24.484Z,93691.00
2023-12-21T13:47:24.481Z,93690.00
2023-12-21T13:48:24.564Z,93689.00
2023-12-21T13:49:24.575Z,93690.00
2023-12-21T13:50:24.512Z,93689.00
2023-12-21T13:51:24.477Z,93683.00
2023-12-21T13:52:24.558Z,93679.00
2023-12-21T13:53:24.460Z,93675.00
2023-12-21T13:54:24.519Z,93674.00
2023-12-21T13:55:24.541Z,93669.00
2023-12-21T13:56:24.500Z,93664.00
2023-12-21T13:57:24.485Z,93667.00
2023-12-21T13:58:24.515Z,93667.00
2023-12-21T13:59:24.506Z,93663.00
2023-12-21T14:00:24.471Z,93662.00
2023-12-21T14:01:24.561Z,93661.00
2023-12-21T14:02:24.604Z,93659.00
2023-12-21T14:03:24.497Z,93660.00
2023-12-21T14:04:24.568Z,93652.00
2023-12-21T14:05:24.538Z,93654.00
2023-12-21T14:06:24.530Z,93650.00
2023-12-21T14:07:24.529Z,93651.00
2023-12-21T14:08:24.508Z,93647.00
2023-12-21T14:09:24.476Z,93645.00
2023-12-21T14:10:24.511Z,93636.00
2023-12-21T14:11:24.505Z,93633.00
2023-12-21T14:12:24.494Z,93634.00
2023-12-21T14:13:24.515Z,93634.00
2023-12-21T14:14:24.476Z,93635.00
2023-12-21T14:15:24.513Z,93635.00
2023-12-21T14:16:24.579Z,93635.00
2023-12-21T14:17:24.511Z,93641.00
2023-12-21T14:18:24.566Z,93643.00
2023-12-21T14:19:24.543Z,93652.00
2023-12-21T14:20:24.513Z,93654.00
2023-12-21T14:21:24.519Z,93645.00
2023-12-21T14:22:24.550Z,93647.00
2023-12-21T14:23:24.511Z,93640.00
2023-12-21T14:24:24.494Z,93634.00
2023-12-21T14:25:24.535Z,93638.00
2023-12-21T14:26:24.522Z,93637.00
2023-12-21T14:27:24.489Z,93633.00
2023-12-21T14:28:25.200Z,93639.00
2023-12-21T14:29:24.586Z,93633.00
2023-12-21T14:30:24.487Z,93626.00
2023-12-21T14:31:24.582Z,93619.00
2023-12-21T14:32:24.616Z,93621.00
2023-12-21T14:33:24.526Z,93621.00
2023-12-21T14:34:24.594Z,93618.00
2023-12-21T14:35:24.510Z,93615.00
2023-12-21T14:36:24.515Z,93616.00
2023-12-21T14:37:25.034Z,93615.00
2023-12-21T14:38:24.534Z,93614.00
2023-12-21T14:39:24.563Z,93609.00
2023-12-21T14:40:24.621Z,93609.00
2023-12-21T14:41:24.608Z,93607.00
2023-12-21T14:42:24.738Z,93606.00
2023-12-21T14:43:24.641Z,93610.00
2023-12-21T14:44:24.642Z,93608.00
2023-12-21T14:45:24.676Z,93609.00
2023-12-21T14:46:24.693Z,93604.00
2023-12-21T14:47:25.065Z,93599.00
2023-12-21T14:48:26.021Z,93601.00
2023-12-21T14:49:24.795Z,93602.00
2023-12-21T14:50:24.805Z,93603.00
2023-12-21T14:51:24.774Z,93599.00
2023-12-21T14:52:25.084Z,93599.00
2023-12-21T14:53:24.777Z,93600.00
2023-12-21T14:54:24.825Z,93599.00
2023-12-21T14:55:24.860Z,93604.00
2023-12-21T14:56:24.824Z,93602.00
2023-12-21T14:57:24.869Z,93601.00
2023-12-21T14:58:24.912Z,93597.00
2023-12-21T14:59:24.934Z,93599.00
2023-12-21T15:00:24.913Z,93595.00
2023-12-21T15:01:25.028Z,93595.00
2023-12-21T15:02:25.012Z,93594.00
2023-12-21T15:03:24.994Z,93601.00
2023-12-21T15:04:25.035Z,93600.00
2023-12-21T15:05:25.056Z,93598.00
2023-12-21T15:06:25.047Z,93596.00
2023-12-21T15:07:25.071Z,93600.00
2023-12-21T15:08:25.092Z,93607.00
2023-12-21T15:09:25.108Z,93606.00
2023-12-21T15:10:25.153Z,93605.00
2023-12-21T15:11:25.160Z,93603.00
2023-12-21T15:12:25.558Z,93603.00
2023-12-21T15:13:25.258Z,93608.00
2023-12-21T15:14:25.189Z,93610.00
2023-12-21T15:15:25.246Z,93613.00
2023-12-21T15:16:25.349Z,93614.00
2023-12-21T15:17:25.299Z,93613.00
2023-12-21T15:18:25.413Z,93615.00
2023-12-21T15:19:25.452Z,93618.00
2023-12-21T15:20:25.423Z,93616.00
2023-12-21T15:21:25.387Z,93615.00
2023-12-21T15:22:25.423Z,93615.00
2023-12-21T15:23:25.507Z,93613.00
2023-12-21T15:24:25.446Z,93611.00
2023-12-21T15:25:25.551Z,93609.00
2023-12-21T15:26:25.484Z,93610.00
2023-12-21T15:27:25.495Z,93603.00
2023-12-21T15:28:25.553Z,93597.00
2023-12-21T15:29:25.544Z,93600.00
2023-12-21T15:30:25.597Z,93609.00
2023-12-21T15:31:25.660Z,93615.00
2023-12-21T15:32:25.717Z,93616.00
2023-12-21T15:33:26.543Z,93614.00
2023-12-21T15:34:25.765Z,93611.00
2023-12-21T15:35:25.732Z,93609.00
2023-12-21T15:36:25.702Z,93607.00
2023-12-21T15:37:25.736Z,93607.00
2023-12-21T15:38:25.742Z,93605.00
2023-12-21T15:39:25.772Z,93605.00
2023-12-21T15:40:26.175Z,93604.00
2023-12-21T15:41:25.844Z,93606.00
2023-12-21T15:42:25.870Z,93604.00
2023-12-21T15:43:26.123Z,93607.00
2023-12-21T15:44:25.872Z,93609.00
2023-12-21T15:45:25.919Z,93610.00
2023-12-21T15:46:25.966Z,93611.00
2023-12-21T15:47:26.006Z,93612.00
2023-12-21T15:48:26.271Z,93613.00
2023-12-21T15:49:26.082Z,93614.00
2023-12-21T15:50:26.056Z,93614.00
2023-12-21T15:51:26.074Z,93610.00
2023-12-21T15:52:26.120Z,93603.00
2023-12-21T15:53:26.125Z,93602.00
2023-12-21T15:54:26.137Z,93602.00
2023-12-21T15:55:26.186Z,93605.00
2023-12-21T15:56:26.184Z,93609.00
2023-12-21T15:57:26.238Z,93614.00
2023-12-21T15:58:26.273Z,93617.00
2023-12-21T15:59:26.281Z,93617.00
2023-12-21T16:00:26.308Z,93616.00
2023-12-21T16:01:26.388Z,93615.00
2023-12-21T16:02:26.331Z,93611.00
2023-12-21T16:03:26.425Z,93605.00
2023-12-21T16:04:26.484Z,93604.00
2023-12-21T16:05:26.499Z,93599.00
2023-12-21T16:06:26.511Z,93599.00
2023-12-21T16:07:26.515Z,93604.00
2023-12-21T16:08:26.570Z,93601.00
2023-12-21T16:09:26.612Z,93600.00
2023-12-21T16:10:26.656Z,93600.00
2023-12-21T16:11:26.636Z,93601.00
2023-12-21T16:12:26.680Z,93595.00
2023-12-21T16:13:26.743Z,93592.00
2023-12-21T16:14:26.695Z,93588.00
2023-12-21T16:15:29.197Z,93589.00
2023-12-21T16:16:27.103Z,93592.00
2023-12-21T16:17:27.029Z,93591.00
2023-12-21T16:18:27.052Z,93586.00
2023-12-21T16:19:27.069Z,93582.00
2023-12-21T16:20:27.032Z,93578.00
2023-12-21T16:21:27.056Z,93586.00
2023-12-21T16:22:27.137Z,93590.00
2023-12-21T16:23:27.100Z,93584.00
2023-12-21T16:24:27.144Z,93582.00
2023-12-21T16:25:27.209Z,93593.00
2023-12-21T16:26:27.204Z,93598.00
2023-12-21T16:27:27.225Z,93601.00
2023-12-21T16:28:27.564Z,93599.00
2023-12-21T16:29:27.246Z,93611.00
2023-12-21T16:30:27.272Z,93609.00
2023-12-21T16:31:27.379Z,93594.00
2023-12-21T16:32:27.366Z,93600.00
2023-12-21T16:33:27.432Z,93605.00
2023-12-21T16:34:27.495Z,93611.00
2023-12-21T16:35:27.396Z,93602.00
2023-12-21T16:36:27.433Z,93611.00
2023-12-21T16:37:27.487Z,93627.00
2023-12-21T16:38:27.469Z,93630.00
2023-12-21T16:39:27.520Z,93631.00
2023-12-21T16:40:27.556Z,93626.00
2023-12-21T16:41:27.526Z,93615.00
2023-12-21T16:42:27.576Z,93614.00
2023-12-21T16:43:27.648Z,93609.00
2023-12-21T16:44:27.588Z,93611.00
2023-12-21T16:45:30.560Z,93610.00
2023-12-21T16:46:27.641Z,93614.00
2023-12-21T16:47:27.628Z,93617.00
2023-12-21T16:48:27.694Z,93619.00
2023-12-21T16:49:27.670Z,93613.00
2023-12-21T16:50:27.677Z,93616.00
2023-12-21T16:51:27.663Z,93608.00
2023-12-21T16:52:27.804Z,93616.00
2023-12-21T16:53:28.145Z,93616.00
2023-12-21T16:54:27.744Z,93613.00
2023-12-21T16:55:27.701Z,93603.00
2023-12-21T16:56:27.641Z,93599.00
2023-12-21T16:57:27.650Z,93607.00
2023-12-21T16:58:27.663Z,93604.00
2023-12-21T16:59:27.698Z,93608.00
2023-12-21T17:00:27.656Z,93606.00
2023-12-21T17:01:27.741Z,93611.00
2023-12-21T17:02:27.624Z,93623.00
2023-12-21T17:03:28.143Z,93628.00
2023-12-21T17:04:27.760Z,93626.00
2023-12-21T17:05:27.895Z,93616.00
2023-12-21T17:06:27.679Z,93608.00
2023-12-21T17:07:27.739Z,93599.00
2023-12-21T17:08:27.689Z,93600.00
2023-12-21T17:09:27.668Z,93598.00
2023-12-21T17:10:27.748Z,93597.00
2023-12-21T17:11:27.696Z,93586.00
2023-12-21T17:12:27.650Z,93589.00
2023-12-21T17:13:27.702Z,93598.00
2023-12-21T17:14:27.625Z,93602.00
2023-12-21T17:15:27.681Z,93602.00
2023-12-21T17:16:27.699Z,93609.00
2023-12-21T17:17:27.725Z,93613.00
2023-12-21T17:18:27.787Z,93608.00
2023-12-21T17:19:27.762Z,93607.00
2023-12-21T17:20:27.657Z,93603.00
2023-12-21T17:21:27.662Z,93603.00
2023-12-21T17:22:27.671Z,93607.00
2023-12-21T17:23:28.133Z,93604.00
2023-12-21T17:24:27.739Z,93598.00
2023-12-21T17:25:27.697Z,93601.00
2023-12-21T17:26:27.679Z,93602.00
2023-12-21T17:27:27.729Z,93603.00
2023-12-21T17:28:27.737Z,93610.00
2023-12-21T17:29:27.693Z,93613.00
2023-12-21T17:30:27.717Z,93610.00
2023-12-21T17:31:27.720Z,93603.00
2023-12-21T17:32:27.730Z,93601.00
2023-12-21T17:33:27.717Z,93592.00
2023-12-21T17:34:28.653Z,93585.00
2023-12-21T17:35:27.769Z,93585.00
2023-12-21T17:36:27.723Z,93572.00
2023-12-21T17:37:27.711Z,93574.00
2023-12-21T17:38:27.738Z,93570.00
2023-12-21T17:39:27.725Z,93568.00
2023-12-21T17:40:27.803Z,93572.00
2023-12-21T17:41:27.680Z,93580.00
2023-12-21T17:42:27.681Z,93582.00
2023-12-21T17:43:27.740Z,93586.00
2023-12-21T17:44:27.710Z,93589.00
2023-12-21T17:45:27.712Z,93586.00
2023-12-21T17:46:27.744Z,93579.00
2023-12-21T17:47:27.754Z,93577.00
2023-12-21T17:48:28.187Z,93574.00
2023-12-21T17:49:27.898Z,93578.00
2023-12-21T17:50:27.721Z,93583.00
2023-12-21T17:51:27.749Z,93575.00
2023-12-21T17:52:27.761Z,93573.00
2023-12-21T17:53:27.856Z,93575.00
2023-12-21T17:54:28.638Z,93577.00
2023-12-21T17:55:27.950Z,93571.00
2023-12-21T17:56:27.927Z,93571.00
2023-12-21T17:57:28.071Z,93572.00
2023-12-21T17:58:28.283Z,93571.00
2023-12-21T17:59:27.969Z,93576.00
2023-12-21T18:00:28.007Z,93578.00
2023-12-21T18:01:28.090Z,93574.00
2023-12-21T18:02:28.013Z,93575.00
2023-12-21T18:03:28.125Z,93567.00
2023-12-21T18:04:28.075Z,93567.00
2023-12-21T18:05:28.145Z,93573.00
2023-12-21T18:06:28.045Z,93572.00
2023-12-21T18:07:28.075Z,93568.00
2023-12-21T18:08:28.193Z,93571.00
2023-12-21T18:09:28.097Z,93569.00
2023-12-21T18:10:28.181Z,93563.00
2023-12-21T18:11:28.202Z,93560.00
2023-12-21T18:12:28.140Z,93559.00
2023-12-21T18:13:28.231Z,93557.00
2023-12-21T18:14:28.203Z,93556.00
2023-12-21T18:15:28.235Z,93564.00
2023-12-21T18:16:28.395Z,93560.00
2023-12-21T18:17:28.448Z,93561.00
2023-12-21T18:18:28.536Z,93557.00
2023-12-21T18:19:28.472Z,93555.00
2023-12-21T18:20:28.428Z,93560.00
2023-12-21T18:21:28.436Z,93565.00
2023-12-21T18:22:28.486Z,93564.00
2023-12-21T18:23:28.484Z,93557.00
2023-12-21T18:24:28.497Z,93560.00
2023-12-21T18:25:28.515Z,93558.00
2023-12-21T18:26:28.558Z,93554.00
2023-12-21T18:27:28.565Z,93547.00
2023-12-21T18:28:29.189Z,93545.00
2023-12-21T18:29:28.569Z,93547.00
2023-12-21T18:30:28.582Z,93546.00
2023-12-21T18:31:28.599Z,93545.00
2023-12-21T18:32:28.613Z,93553.00
2023-12-21T18:33:28.681Z,93553.00
2023-12-21T18:34:28.708Z,93555.00
2023-12-21T18:35:28.661Z,93550.00
2023-12-21T18:36:28.674Z,93546.00
2023-12-21T18:37:28.714Z,93545.00
2023-12-21T18:38:28.743Z,93546.00
2023-12-21T18:39:28.749Z,93548.00
2023-12-21T18:40:28.780Z,93540.00
2023-12-21T18:41:28.778Z,93548.00
2023-12-21T18:42:28.801Z,93547.00
2023-12-21T18:43:28.802Z,93547.00
2023-12-21T18:44:28.842Z,93540.00
2023-12-21T18:45:28.793Z,93537.00
2023-12-21T18:46:28.849Z,93527.00
2023-12-21T18:47:28.874Z,93530.00
2023-12-21T18:48:28.902Z,93539.00
2023-12-21T18:49:28.900Z,93542.00
2023-12-21T18:50:28.930Z,93541.00
2023-12-21T18:51:28.946Z,93536.00
2023-12-21T18:52:28.964Z,93525.00
2023-12-21T18:53:31.577Z,93523.00
2023-12-21T18:54:28.972Z,93520.00
2023-12-21T18:55:28.969Z,93518.00
2023-12-21T18:56:29.033Z,93518.00
2023-12-21T18:57:28.983Z,93509.00
2023-12-21T18:58:29.002Z,93508.00
2023-12-21T18:59:29.012Z,93511.00
2023-12-21T19:00:28.942Z,93519.00
2023-12-21T19:01:29.033Z,93518.00
2023-12-21T19:02:28.958Z,93518.00
2023-12-21T19:03:29.171Z,93515.00
2023-12-21T19:04:29.108Z,93515.00
2023-12-21T19:05:29.093Z,93512.00
2023-12-21T19:06:29.088Z,93502.00
2023-12-21T19:07:29.000Z,93498.00
2023-12-21T19:08:28.990Z,93501.00
2023-12-21T19:09:28.969Z,93499.00
2023-12-21T19:10:29.013Z,93500.00
2023-12-21T19:11:28.973Z,93497.00
2023-12-21T19:12:28.942Z,93496.00
2023-12-21T19:13:29.000Z,93496.00
2023-12-21T19:14:29.006Z,93493.00
2023-12-21T19:15:29.017Z,93492.00
2023-12-21T19:16:28.968Z,93496.00
2023-12-21T19:17:28.994Z,93493.00
2023-12-21T19:18:29.022Z,93495.00
2023-12-21T19:19:29.130Z,93493.00
2023-12-21T19:20:28.976Z,93495.00
2023-12-21T19:21:28.994Z,93492.00
2023-12-21T19:22:29.106Z,93482.00
2023-12-21T19:23:29.002Z,93490.00
2023-12-21T19:24:28.958Z,93486.00
2023-12-21T19:25:28.965Z,93484.00
2023-12-21T19:26:28.962Z,93479.00
2023-12-21T19:27:28.985Z,93467.00
2023-12-21T19:28:29.150Z,93459.00
2023-12-21T19:29:28.998Z,93448.00
2023-12-21T19:30:29.010Z,93450.00
2023-12-21T19:31:29.056Z,93453.00
2023-12-21T19:32:29.110Z,93452.00
2023-12-21T19:33:29.095Z,93459.00
2023-12-21T19:34:29.027Z,93466.00
2023-12-21T19:35:28.983Z,93462.00
2023-12-21T19:36:29.061Z,93462.00
2023-12-21T19:37:29.716Z,93452.00
2023-12-21T19:38:29.071Z,93457.00
2023-12-21T19:39:29.005Z,93461.00
2023-12-21T19:40:29.026Z,93463.00
2023-12-21T19:41:28.993Z,93463.00
2023-12-21T19:42:29.001Z,93464.00
2023-12-21T19:43:29.290Z,93459.00
2023-12-21T19:44:29.011Z,93458.00
2023-12-21T19:45:29.028Z,93453.00
2023-12-21T19:46:29.067Z,93452.00
2023-12-21T19:47:29.067Z,93455.00
2023-12-21T19:48:29.123Z,93450.00
2023-12-21T19:49:29.127Z,93443.00
2023-12-21T19:50:29.001Z,93441.00
2023-12-21T19:51:29.000Z,93431.00
2023-12-21T19:52:29.028Z,93426.00
2023-12-21T19:53:29.017Z,93426.00
2023-12-21T19:54:29.007Z,93419.00
2023-12-21T19:55:29.050Z,93414.00
2023-12-21T19:56:29.036Z,93421.00
2023-12-21T19:57:28.992Z,93421.00
2023-12-21T19:58:29.071Z,93416.00
2023-12-21T19:59:29.011Z,93411.00
2023-12-21T20:00:29.039Z,93417.00
2023-12-21T20:01:29.095Z,93424.00
2023-12-21T20:02:29.031Z,93426.00
2023-12-21T20:03:29.049Z,93418.00
2023-12-21T20:04:29.133Z,93418.00
2023-12-21T20:05:29.197Z,93419.00
2023-12-21T20:06:29.179Z,93422.00
2023-12-21T20:07:29.121Z,93420.00
2023-12-21T20:08:29.083Z,93415.00
2023-12-21T20:09:29.048Z,93415.00
2023-12-21T20:10:29.098Z,93413.00
2023-12-21T20:11:29.158Z,93409.00
2023-12-21T20:12:29.042Z,93396.00
2023-12-21T20:13:29.077Z,93398.00
2023-12-21T20:14:29.053Z,93405.00
2023-12-21T20:15:29.068Z,93394.00
2023-12-21T20:16:29.110Z,93392.00
2023-12-21T20:17:29.141Z,93400.00
2023-12-21T20:18:29.717Z,93401.00
2023-12-21T20:19:29.141Z,93402.00
2023-12-21T20:20:29.064Z,93396.00
2023-12-21T20:21:29.060Z,93393.00
2023-12-21T20:22:29.093Z,93401.00
2023-12-21T20:23:29.224Z,93405.00
2023-12-21T20:24:29.083Z,93398.00
2023-12-21T20:25:29.078Z,93399.00
2023-12-21T20:26:29.063Z,93400.00
2023-12-21T20:27:29.045Z,93403.00
2023-12-21T20:28:29.093Z,93403.00
2023-12-21T20:29:29.143Z,93395.00
2023-12-21T20:30:29.069Z,93401.00
2023-12-21T20:31:29.106Z,93403.00
2023-12-21T20:32:29.109Z,93401.00